createdAt,value
2018-02-03T00:00:36.491Z,994.92
2018-02-03T00:02:29.826Z,994.92
2018-02-03T00:03:29.782Z,994.90
2018-02-03T00:05:23.124Z,994.84
2018-02-03T00:06:23.079Z,994.95
2018-02-03T00:08:16.425Z,994.90
2018-02-03T00:09:16.407Z,994.85
2018-02-03T00:11:09.756Z,994.88
2018-02-03T00:12:09.833Z,994.86
2018-02-03T00:14:03.096Z,994.92
2018-02-03T00:15:03.217Z,994.81
2018-02-03T00:16:56.407Z,994.84
2018-02-03T00:17:56.374Z,994.90
2018-02-03T00:19:49.696Z,994.81
2018-02-03T00:20:49.688Z,994.80
2018-02-03T00:22:43.028Z,994.75
2018-02-03T00:23:42.965Z,994.87
2018-02-03T00:25:36.675Z,994.72
2018-02-03T00:26:36.439Z,994.82
2018-02-03T00:28:29.934Z,994.77
2018-02-03T00:29:29.889Z,994.82
2018-02-03T00:31:23.224Z,994.83
2018-02-03T00:32:23.234Z,994.82
2018-02-03T00:34:16.051Z,994.85
2018-02-03T00:35:15.999Z,994.79
2018-02-03T00:37:09.334Z,994.81
2018-02-03T00:38:09.291Z,994.81
2018-02-03T00:40:02.750Z,994.75
2018-02-03T00:41:02.889Z,994.78
2018-02-03T00:42:56.049Z,994.78
2018-02-03T00:43:56.019Z,994.69
2018-02-03T00:45:49.357Z,994.71
2018-02-03T00:46:49.332Z,994.65
2018-02-03T00:48:42.648Z,994.59
2018-02-03T00:49:42.629Z,994.62
2018-02-03T00:51:35.971Z,994.60
2018-02-03T00:52:35.921Z,994.62
2018-02-03T00:54:29.246Z,994.58
2018-02-03T00:55:29.222Z,994.58
2018-02-03T00:57:22.581Z,994.55
2018-02-03T00:58:22.523Z,994.47
2018-02-03T01:00:15.878Z,994.43
2018-02-03T01:01:15.834Z,994.42
2018-02-03T01:03:08.679Z,994.39
2018-02-03T01:04:08.626Z,994.35
2018-02-03T01:06:01.949Z,994.34
2018-02-03T01:07:01.927Z,994.30
2018-02-03T01:08:55.296Z,994.33
2018-02-03T01:09:55.262Z,994.45
2018-02-03T01:11:48.093Z,994.36
2018-02-03T01:12:48.060Z,994.38
2018-02-03T01:14:42.404Z,994.35
2018-02-03T01:15:42.366Z,994.50
2018-02-03T01:17:35.192Z,994.36
2018-02-03T01:18:35.156Z,994.46
2018-02-03T01:20:28.010Z,994.39
2018-02-03T01:21:27.960Z,994.41
2018-02-03T01:23:21.268Z,994.47
2018-02-03T01:24:21.256Z,994.42
2018-02-03T01:26:14.588Z,994.51
2018-02-03T01:27:14.552Z,994.51
2018-02-03T01:29:07.937Z,994.54
2018-02-03T01:30:07.911Z,994.53
2018-02-03T01:32:01.243Z,994.56
2018-02-03T01:33:01.200Z,994.59
2018-02-03T01:34:54.519Z,994.60
2018-02-03T01:35:54.495Z,994.58
2018-02-03T01:37:47.826Z,994.57
2018-02-03T01:38:47.779Z,994.63
2018-02-03T01:40:40.610Z,994.73
2018-02-03T01:41:40.585Z,994.68
2018-02-03T01:43:33.913Z,994.66
2018-02-03T01:44:33.866Z,994.66
2018-02-03T01:46:27.190Z,994.62
2018-02-03T01:47:27.165Z,994.67
2018-02-03T01:49:20.507Z,994.67
2018-02-03T01:50:20.463Z,994.70
2018-02-03T01:52:13.785Z,994.71
2018-02-03T01:53:13.768Z,994.62
2018-02-03T01:55:07.115Z,994.62
2018-02-03T01:56:07.084Z,994.59
2018-02-03T01:58:00.395Z,994.62
2018-02-03T01:59:00.365Z,994.60
2018-02-03T02:00:53.702Z,994.58
2018-02-03T02:01:53.663Z,994.60
2018-02-03T02:03:46.973Z,994.61
2018-02-03T02:04:46.952Z,994.54
2018-02-03T02:06:39.798Z,994.53
2018-02-03T02:07:39.745Z,994.51
2018-02-03T02:09:33.085Z,994.54
2018-02-03T02:10:33.043Z,994.50
2018-02-03T02:12:26.378Z,994.48
2018-02-03T02:13:26.334Z,994.52
2018-02-03T02:15:19.668Z,994.48
2018-02-03T02:16:19.636Z,994.47
2018-02-03T02:18:13.024Z,994.52
2018-02-03T02:19:12.954Z,994.47
2018-02-03T02:21:06.255Z,994.39
2018-02-03T02:22:06.232Z,994.45
2018-02-03T02:23:59.566Z,994.41
2018-02-03T02:24:59.527Z,994.43
2018-02-03T02:26:53.834Z,994.39
2018-02-03T02:27:53.808Z,994.34
2018-02-03T02:29:47.143Z,994.41
2018-02-03T02:30:47.100Z,994.36
2018-02-03T02:32:40.425Z,994.34
2018-02-03T02:33:40.398Z,994.44
2018-02-03T02:35:33.723Z,994.35
2018-02-03T02:36:33.680Z,994.35
2018-02-03T02:38:26.998Z,994.45
2018-02-03T02:39:26.974Z,994.31
2018-02-03T02:41:20.311Z,994.33
2018-02-03T02:42:20.267Z,994.30
2018-02-03T02:44:13.617Z,994.28
2018-02-03T02:45:13.558Z,994.31
2018-02-03T02:47:06.907Z,994.30
2018-02-03T02:48:06.856Z,994.23
2018-02-03T02:50:00.175Z,994.20
2018-02-03T02:51:00.158Z,994.24
2018-02-03T02:52:52.986Z,994.30
2018-02-03T02:53:52.948Z,994.20
2018-02-03T02:55:47.238Z,994.17
2018-02-03T02:56:46.240Z,994.20
2018-02-03T02:58:39.563Z,994.25
2018-02-03T02:59:39.524Z,994.26
2018-02-03T03:01:32.852Z,994.28
2018-02-03T03:02:32.821Z,994.24
2018-02-03T03:04:26.170Z,994.27
2018-02-03T03:05:26.125Z,994.23
2018-02-03T03:07:19.441Z,994.27
2018-02-03T03:08:19.423Z,994.29
2018-02-03T03:10:12.251Z,994.30
2018-02-03T03:11:12.212Z,994.24
2018-02-03T03:13:05.534Z,994.21
2018-02-03T03:14:05.504Z,994.20
2018-02-03T03:15:58.868Z,994.13
2018-02-03T03:16:58.807Z,994.15
2018-02-03T03:18:52.134Z,994.18
2018-02-03T03:19:52.105Z,994.32
2018-02-03T03:21:45.438Z,994.22
2018-02-03T03:22:45.400Z,994.16
2018-02-03T03:24:38.715Z,994.14
2018-02-03T03:25:38.679Z,994.10
2018-02-03T03:27:32.026Z,994.07
2018-02-03T03:28:31.981Z,994.05
2018-02-03T03:30:25.403Z,994.09
2018-02-03T03:31:25.369Z,994.09
2018-02-03T03:33:18.712Z,994.08
2018-02-03T03:34:18.670Z,994.00
2018-02-03T03:36:11.986Z,994.01
2018-02-03T03:37:11.958Z,993.96
2018-02-03T03:39:05.291Z,993.97
2018-02-03T03:40:05.247Z,994.02
2018-02-03T03:41:58.071Z,994.04
2018-02-03T03:42:58.039Z,994.04
2018-02-03T03:44:51.381Z,993.98
2018-02-03T03:45:51.364Z,994.02
2018-02-03T03:47:44.657Z,993.93
2018-02-03T03:48:44.638Z,993.98
2018-02-03T03:50:37.476Z,993.91
2018-02-03T03:51:37.429Z,993.97
2018-02-03T03:53:31.404Z,993.87
2018-02-03T03:54:30.847Z,993.87
2018-02-03T03:56:24.127Z,993.88
2018-02-03T03:57:24.093Z,993.86
2018-02-03T03:59:17.423Z,993.85
2018-02-03T04:00:17.397Z,993.80
2018-02-03T04:02:10.722Z,993.86
2018-02-03T04:03:10.679Z,993.90
2018-02-03T04:05:03.503Z,993.87
2018-02-03T04:06:03.474Z,993.86
2018-02-03T04:07:56.816Z,993.95
2018-02-03T04:08:56.765Z,993.98
2018-02-03T04:10:50.093Z,993.95
2018-02-03T04:11:50.067Z,993.97
2018-02-03T04:13:43.395Z,994.04
2018-02-03T04:14:43.359Z,994.03
2018-02-03T04:16:36.278Z,994.04
2018-02-03T04:17:36.165Z,994.08
2018-02-03T04:19:29.487Z,994.04
2018-02-03T04:20:29.445Z,994.02
2018-02-03T04:22:22.759Z,994.07
2018-02-03T04:23:22.733Z,994.08
2018-02-03T04:25:15.580Z,994.08
2018-02-03T04:26:15.534Z,994.10
2018-02-03T04:28:08.857Z,994.10
2018-02-03T04:29:08.828Z,994.15
2018-02-03T04:31:01.828Z,994.15
2018-02-03T04:32:01.768Z,994.15
2018-02-03T04:33:55.089Z,994.13
2018-02-03T04:34:55.068Z,994.16
2018-02-03T04:36:47.903Z,994.11
2018-02-03T04:37:47.854Z,994.12
2018-02-03T04:39:40.679Z,994.15
2018-02-03T04:40:40.659Z,994.15
2018-02-03T04:42:33.992Z,994.14
2018-02-03T04:43:33.949Z,994.19
2018-02-03T04:45:27.267Z,994.19
2018-02-03T04:46:27.247Z,994.22
2018-02-03T04:48:20.600Z,994.17
2018-02-03T04:49:20.543Z,994.18
2018-02-03T04:51:13.865Z,994.17
2018-02-03T04:52:13.838Z,994.20
2018-02-03T04:54:07.172Z,994.19
2018-02-03T04:55:07.128Z,994.22
2018-02-03T04:57:00.459Z,994.23
2018-02-03T04:58:00.438Z,994.20
2018-02-03T04:59:53.769Z,994.18
2018-02-03T05:00:53.722Z,994.17
2018-02-03T05:02:47.053Z,994.24
2018-02-03T05:03:47.017Z,994.23
2018-02-03T05:05:40.353Z,994.22
2018-02-03T05:06:40.315Z,994.26
2018-02-03T05:08:33.642Z,994.22
2018-02-03T05:09:33.616Z,994.24
2018-02-03T05:11:27.054Z,994.23
2018-02-03T05:12:26.989Z,994.23
2018-02-03T05:14:20.302Z,994.22
2018-02-03T05:15:20.306Z,994.21
2018-02-03T05:17:13.629Z,994.24
2018-02-03T05:18:13.586Z,994.27
2018-02-03T05:20:06.923Z,994.28
2018-02-03T05:21:06.890Z,994.26
2018-02-03T05:23:00.234Z,994.24
2018-02-03T05:24:00.236Z,994.19
2018-02-03T05:25:53.500Z,994.24
2018-02-03T05:26:53.475Z,994.24
2018-02-03T05:28:46.816Z,994.21
2018-02-03T05:29:46.765Z,994.18
2018-02-03T05:31:40.086Z,994.18
2018-02-03T05:32:40.065Z,994.17
2018-02-03T05:34:33.422Z,994.14
2018-02-03T05:35:33.358Z,994.18
2018-02-03T05:37:26.681Z,994.12
2018-02-03T05:38:26.652Z,994.16
2018-02-03T05:40:19.994Z,994.16
2018-02-03T05:41:19.959Z,994.12
2018-02-03T05:43:13.261Z,994.10
2018-02-03T05:44:13.237Z,994.05
2018-02-03T05:46:06.574Z,994.09
2018-02-03T05:47:06.531Z,994.03
2018-02-03T05:48:59.858Z,994.10
2018-02-03T05:49:59.844Z,994.05
2018-02-03T05:51:53.174Z,994.10
2018-02-03T05:52:53.133Z,994.03
2018-02-03T05:54:46.446Z,994.05
2018-02-03T05:55:46.423Z,994.04
2018-02-03T05:57:39.270Z,994.06
2018-02-03T05:58:39.223Z,994.12
2018-02-03T06:00:32.048Z,994.10
2018-02-03T06:01:32.029Z,994.10
2018-02-03T06:03:25.348Z,994.15
2018-02-03T06:04:25.314Z,994.18
2018-02-03T06:06:19.634Z,994.16
2018-02-03T06:07:19.602Z,994.18
2018-02-03T06:09:12.939Z,994.22
2018-02-03T06:10:12.900Z,994.14
2018-02-03T06:12:06.229Z,994.18
2018-02-03T06:13:06.204Z,994.12
2018-02-03T06:14:59.549Z,994.17
2018-02-03T06:15:59.499Z,994.16
2018-02-03T06:17:52.836Z,994.19
2018-02-03T06:18:52.797Z,994.23
2018-02-03T06:20:46.142Z,994.24
2018-02-03T06:21:46.097Z,994.18
2018-02-03T06:23:39.414Z,994.18
2018-02-03T06:24:39.389Z,994.23
2018-02-03T06:26:32.576Z,994.15
2018-02-03T06:27:32.535Z,994.19
2018-02-03T06:29:25.853Z,994.16
2018-02-03T06:30:25.828Z,994.17
2018-02-03T06:32:19.163Z,994.21
2018-02-03T06:33:19.132Z,994.18
2018-02-03T06:35:11.947Z,994.20
2018-02-03T06:36:11.926Z,994.18
2018-02-03T06:38:05.400Z,994.22
2018-02-03T06:39:05.216Z,994.18
2018-02-03T06:40:58.042Z,994.20
2018-02-03T06:41:58.013Z,994.19
2018-02-03T06:43:51.347Z,994.19
2018-02-03T06:44:51.309Z,994.22
2018-02-03T06:46:44.626Z,994.25
2018-02-03T06:47:44.594Z,994.28
2018-02-03T06:49:37.924Z,994.29
2018-02-03T06:50:37.897Z,994.27
2018-02-03T06:52:31.212Z,994.32
2018-02-03T06:53:31.181Z,994.35
2018-02-03T06:55:24.507Z,994.39
2018-02-03T06:56:24.495Z,994.44
2018-02-03T06:58:19.795Z,994.41
2018-02-03T06:59:17.765Z,994.38
2018-02-03T07:01:11.096Z,994.40
2018-02-03T07:02:11.056Z,994.38
2018-02-03T07:04:03.875Z,994.46
2018-02-03T07:05:03.848Z,994.32
2018-02-03T07:06:57.188Z,994.36
2018-02-03T07:07:57.143Z,994.40
2018-02-03T07:09:50.473Z,994.40
2018-02-03T07:10:50.433Z,994.35
2018-02-03T07:12:43.780Z,994.39
2018-02-03T07:13:43.736Z,994.33
2018-02-03T07:15:37.052Z,994.41
2018-02-03T07:16:37.028Z,994.32
2018-02-03T07:18:30.357Z,994.38
2018-02-03T07:19:30.328Z,994.35
2018-02-03T07:21:23.787Z,994.36
2018-02-03T07:22:23.614Z,994.29
2018-02-03T07:24:16.948Z,994.34
2018-02-03T07:25:16.903Z,994.32
2018-02-03T07:27:10.298Z,994.38
2018-02-03T07:28:10.258Z,994.40
2018-02-03T07:30:03.595Z,994.35
2018-02-03T07:31:03.553Z,994.40
2018-02-03T07:32:56.874Z,994.45
2018-02-03T07:33:56.854Z,994.39
2018-02-03T07:35:50.189Z,994.45
2018-02-03T07:36:50.135Z,994.51
2018-02-03T07:38:43.454Z,994.45
2018-02-03T07:39:43.428Z,994.46
2018-02-03T07:41:36.798Z,994.51
2018-02-03T07:42:36.732Z,994.40
2018-02-03T07:44:30.046Z,994.41
2018-02-03T07:45:30.027Z,994.39
2018-02-03T07:47:23.355Z,994.40
2018-02-03T07:48:23.314Z,994.39
2018-02-03T07:50:16.628Z,994.33
2018-02-03T07:51:16.599Z,994.39
2018-02-03T07:53:10.936Z,994.46
2018-02-03T07:54:10.896Z,994.43
2018-02-03T07:56:04.217Z,994.41
2018-02-03T07:57:04.189Z,994.41
2018-02-03T07:58:57.529Z,994.38
2018-02-03T07:59:57.489Z,994.44
2018-02-03T08:01:51.300Z,994.50
2018-02-03T08:02:50.797Z,994.49
2018-02-03T08:04:44.145Z,994.47
2018-02-03T08:05:44.093Z,994.45
2018-02-03T08:07:37.422Z,994.42
2018-02-03T08:08:37.386Z,994.48
2018-02-03T08:10:30.726Z,994.50
2018-02-03T08:11:30.674Z,994.47
2018-02-03T08:13:23.996Z,994.46
2018-02-03T08:14:23.978Z,994.46
2018-02-03T08:16:17.315Z,994.51
2018-02-03T08:17:17.268Z,994.48
2018-02-03T08:19:10.584Z,994.45
2018-02-03T08:20:10.556Z,994.53
2018-02-03T08:22:03.897Z,994.50
2018-02-03T08:23:03.856Z,994.48
2018-02-03T08:24:57.169Z,994.43
2018-02-03T08:25:57.141Z,994.46
2018-02-03T08:27:50.476Z,994.48
2018-02-03T08:28:50.439Z,994.42
2018-02-03T08:30:43.771Z,994.44
2018-02-03T08:31:43.731Z,994.41
2018-02-03T08:33:37.082Z,994.44
2018-02-03T08:34:37.022Z,994.34
2018-02-03T08:36:30.365Z,994.44
2018-02-03T08:37:30.354Z,994.39
2018-02-03T08:39:23.665Z,994.39
2018-02-03T08:40:23.625Z,994.40
2018-02-03T08:42:16.934Z,994.39
2018-02-03T08:43:16.913Z,994.40
2018-02-03T08:45:10.276Z,994.36
2018-02-03T08:46:10.208Z,994.37
2018-02-03T08:48:03.533Z,994.40
2018-02-03T08:49:03.506Z,994.31
2018-02-03T08:50:56.845Z,994.36
2018-02-03T08:51:56.807Z,994.40
2018-02-03T08:53:50.135Z,994.36
2018-02-03T08:54:50.107Z,994.33
2018-02-03T08:56:43.453Z,994.36
2018-02-03T08:57:43.413Z,994.32
2018-02-03T08:59:36.241Z,994.33
2018-02-03T09:00:36.214Z,994.36
2018-02-03T09:02:29.561Z,994.24
2018-02-03T09:03:29.511Z,994.27
2018-02-03T09:05:22.852Z,994.25
2018-02-03T09:06:22.812Z,994.34
2018-02-03T09:08:16.137Z,994.32
2018-02-03T09:09:16.102Z,994.30
2018-02-03T09:11:09.409Z,994.34
2018-02-03T09:12:09.386Z,994.31
2018-02-03T09:14:02.716Z,994.29
2018-02-03T09:15:02.695Z,994.37
2018-02-03T09:16:56.009Z,994.30
2018-02-03T09:17:55.974Z,994.23
2018-02-03T09:19:49.318Z,994.28
2018-02-03T09:20:49.282Z,994.24
2018-02-03T09:22:42.595Z,994.23
2018-02-03T09:23:42.563Z,994.26
2018-02-03T09:25:35.907Z,994.22
2018-02-03T09:26:35.855Z,994.37
2018-02-03T09:28:28.674Z,994.27
2018-02-03T09:29:28.664Z,994.24
2018-02-03T09:31:21.986Z,994.18
2018-02-03T09:32:21.955Z,994.17
2018-02-03T09:34:16.260Z,994.21
2018-02-03T09:35:16.227Z,994.16
2018-02-03T09:37:09.613Z,994.20
2018-02-03T09:38:09.540Z,994.16
2018-02-03T09:40:02.845Z,994.18
2018-02-03T09:41:02.820Z,994.22
2018-02-03T09:42:56.155Z,994.21
2018-02-03T09:43:56.127Z,994.22
2018-02-03T09:45:49.431Z,994.28
2018-02-03T09:46:49.415Z,994.23
2018-02-03T09:48:42.751Z,994.30
2018-02-03T09:49:42.719Z,994.29
2018-02-03T09:51:37.051Z,994.37
2018-02-03T09:52:37.042Z,994.33
2018-02-03T09:54:30.362Z,994.31
2018-02-03T09:55:30.310Z,994.41
2018-02-03T09:57:24.630Z,994.34
2018-02-03T09:58:24.598Z,994.34
2018-02-03T10:00:18.000Z,994.33
2018-02-03T10:01:17.955Z,994.39
2018-02-03T10:03:11.254Z,994.38
2018-02-03T10:04:11.207Z,994.41
2018-02-03T10:06:04.533Z,994.37
2018-02-03T10:07:04.480Z,994.45
2018-02-03T10:08:57.819Z,994.38
2018-02-03T10:09:57.819Z,994.42
2018-02-03T10:11:51.123Z,994.35
2018-02-03T10:12:51.078Z,994.41
2018-02-03T10:14:44.385Z,994.42
2018-02-03T10:15:44.372Z,994.38
2018-02-03T10:17:38.745Z,994.39
2018-02-03T10:18:38.669Z,994.37
2018-02-03T10:20:32.011Z,994.41
2018-02-03T10:21:31.984Z,994.31
2018-02-03T10:23:24.795Z,994.29
2018-02-03T10:24:24.756Z,994.27
2018-02-03T10:26:17.579Z,994.31
2018-02-03T10:27:17.551Z,994.27
2018-02-03T10:29:10.893Z,994.30
2018-02-03T10:30:10.852Z,994.28
2018-02-03T10:32:03.677Z,994.28
2018-02-03T10:33:03.650Z,994.28
2018-02-03T10:34:56.489Z,994.24
2018-02-03T10:35:56.448Z,994.24
2018-02-03T10:37:49.764Z,994.30
2018-02-03T10:38:49.769Z,994.25
2018-02-03T10:40:42.653Z,994.24
2018-02-03T10:41:42.539Z,994.22
2018-02-03T10:43:35.849Z,994.22
2018-02-03T10:44:35.823Z,994.25
2018-02-03T10:46:28.656Z,994.19
2018-02-03T10:47:28.617Z,994.26
2018-02-03T10:49:21.441Z,994.16
2018-02-03T10:50:21.409Z,994.17
2018-02-03T10:52:14.247Z,994.23
2018-02-03T10:53:14.206Z,994.25
2018-02-03T10:55:07.033Z,994.18
2018-02-03T10:56:07.005Z,994.19
2018-02-03T10:57:59.904Z,994.25
2018-02-03T10:58:59.801Z,994.23
2018-02-03T11:00:52.630Z,994.18
2018-02-03T11:01:52.606Z,994.31
2018-02-03T11:03:45.443Z,994.22
2018-02-03T11:04:45.402Z,994.11
2018-02-03T11:06:38.222Z,994.14
2018-02-03T11:07:38.197Z,994.13
2018-02-03T11:09:31.535Z,994.16
2018-02-03T11:10:31.646Z,994.11
2018-02-03T11:12:24.322Z,994.14
2018-02-03T11:13:24.297Z,994.12
2018-02-03T11:15:17.130Z,994.06
2018-02-03T11:16:17.084Z,994.07
2018-02-03T11:18:10.406Z,994.15
2018-02-03T11:19:10.378Z,994.06
2018-02-03T11:21:03.213Z,994.06
2018-02-03T12:52:27.203Z,993.29
2018-02-03T12:55:19.925Z,993.24
2018-02-03T12:56:19.895Z,993.22
2018-02-03T12:58:12.725Z,993.29
2018-02-03T12:59:12.681Z,993.28
2018-02-03T13:01:05.505Z,993.32
2018-02-03T13:02:05.475Z,993.25
2018-02-03T13:03:58.316Z,993.25
2018-02-03T13:04:58.263Z,993.20
2018-02-03T13:06:51.573Z,993.27
2018-02-03T13:07:51.546Z,993.25
2018-02-03T13:09:44.389Z,993.15
2018-02-03T13:10:44.343Z,993.23
2018-02-03T13:12:37.164Z,993.20
2018-02-03T13:13:37.140Z,993.24
2018-02-03T13:15:29.978Z,993.12
2018-02-03T13:16:29.935Z,993.14
2018-02-03T13:18:23.255Z,993.11
2018-02-03T13:19:23.229Z,993.09
2018-02-03T13:21:16.073Z,993.08
2018-02-03T13:22:16.036Z,993.01
2018-02-03T13:24:08.856Z,993.03
2018-02-03T13:25:08.825Z,992.99
2018-02-03T13:27:02.161Z,992.95
2018-02-03T13:28:02.127Z,992.94
2018-02-03T13:29:54.949Z,992.96
2018-02-03T13:30:54.924Z,992.93
2018-02-03T13:32:47.764Z,992.92
2018-02-03T13:33:47.724Z,993.01
2018-02-03T13:35:40.550Z,992.93
2018-02-03T13:36:40.523Z,992.94
2018-02-03T13:38:33.858Z,992.97
2018-02-03T13:39:33.819Z,992.96
2018-02-03T13:41:26.652Z,992.97
2018-02-03T13:42:26.629Z,992.96
2018-02-03T13:44:19.471Z,992.91
2018-02-03T13:45:19.432Z,992.92
2018-02-03T13:47:12.260Z,992.88
2018-02-03T13:48:12.239Z,992.90
2018-02-03T13:50:05.572Z,992.84
2018-02-03T13:51:05.539Z,992.84
2018-02-03T13:52:58.362Z,992.84
2018-02-03T13:53:58.335Z,992.88
2018-02-03T13:55:51.179Z,993.03
2018-02-03T13:56:51.136Z,992.85
2018-02-03T13:58:43.963Z,992.81
2018-02-03T13:59:43.930Z,992.81
2018-02-03T14:01:36.777Z,992.87
2018-02-03T14:02:36.740Z,992.85
2018-02-03T14:04:29.564Z,992.85
2018-02-03T14:05:29.541Z,992.86
2018-02-03T14:07:22.381Z,992.82
2018-02-03T14:08:22.341Z,992.81
2018-02-03T14:10:15.167Z,992.82
2018-02-03T14:11:15.142Z,992.83
2018-02-03T14:13:07.979Z,992.84
2018-02-03T14:14:07.939Z,992.93
2018-02-03T14:16:00.759Z,992.89
2018-02-03T14:17:00.740Z,992.93
2018-02-03T14:18:54.085Z,992.91
2018-02-03T14:19:54.042Z,992.89
2018-02-03T14:21:46.865Z,992.86
2018-02-03T14:22:46.841Z,992.82
2018-02-03T14:24:39.685Z,992.80
2018-02-03T14:25:39.651Z,992.83
2018-02-03T14:27:32.475Z,992.84
2018-02-03T14:28:32.454Z,992.87
2018-02-03T14:30:25.295Z,992.91
2018-02-03T14:31:25.253Z,992.86
2018-02-03T14:33:18.074Z,992.98
2018-02-03T14:34:18.052Z,992.94
2018-02-03T14:36:11.396Z,992.96
2018-02-03T14:37:11.353Z,993.05
2018-02-03T14:39:04.176Z,993.05
2018-02-03T14:40:04.150Z,993.11
2018-02-03T14:41:56.987Z,993.14
2018-02-03T14:42:56.947Z,993.12
2018-02-03T14:44:49.771Z,993.08
2018-02-03T14:45:49.744Z,993.12
2018-02-03T14:47:42.591Z,993.06
2018-02-03T14:48:42.542Z,993.04
2018-02-03T14:50:35.398Z,993.08
2018-02-03T14:51:35.344Z,993.04
2018-02-03T14:53:28.177Z,993.07
2018-02-03T14:54:28.135Z,993.08
2018-02-03T14:56:20.978Z,993.07
2018-02-03T14:57:20.940Z,993.11
2018-02-03T14:59:13.800Z,993.07
2018-02-03T15:00:13.738Z,993.13
2018-02-03T15:02:06.551Z,993.05
2018-02-03T15:03:06.528Z,993.10
2018-02-03T15:04:59.860Z,993.05
2018-02-03T15:05:59.820Z,993.05
2018-02-03T15:07:52.643Z,993.05
2018-02-03T15:08:52.615Z,993.10
2018-02-03T15:10:45.463Z,993.10
2018-02-03T15:11:45.420Z,993.12
2018-02-03T15:13:38.739Z,993.06
2018-02-03T15:14:38.713Z,993.12
2018-02-03T15:16:31.551Z,993.05
2018-02-03T15:17:31.510Z,993.08
2018-02-03T15:19:24.329Z,993.03
2018-02-03T15:20:24.304Z,993.03
2018-02-03T15:22:17.159Z,993.03
2018-02-03T15:23:17.109Z,993.01
2018-02-03T15:25:10.435Z,993.05
2018-02-03T15:26:10.408Z,993.01
2018-02-03T15:28:03.250Z,993.01
2018-02-03T15:29:03.210Z,993.06
2018-02-03T15:30:56.045Z,993.05
2018-02-03T15:31:56.016Z,993.03
2018-02-03T15:33:49.358Z,993.01
2018-02-03T15:34:49.316Z,993.05
2018-02-03T15:36:42.140Z,993.12
2018-02-03T15:37:42.115Z,993.08
2018-02-03T15:39:34.956Z,993.13
2018-02-03T15:40:34.914Z,993.10
2018-02-03T15:42:27.751Z,993.12
2018-02-03T15:43:27.791Z,993.09
2018-02-03T15:45:20.578Z,993.15
2018-02-03T15:46:20.533Z,993.13
2018-02-03T15:48:13.365Z,993.11
2018-02-03T15:49:13.334Z,993.15
2018-02-03T15:51:06.665Z,993.12
2018-02-03T15:52:06.625Z,993.16
2018-02-03T15:53:59.452Z,993.15
2018-02-03T15:54:59.429Z,993.16
2018-02-03T15:56:52.812Z,993.18
2018-02-03T15:57:52.732Z,993.23
2018-02-03T15:59:45.558Z,993.24
2018-02-03T16:00:45.537Z,993.17
2018-02-03T16:02:38.377Z,993.21
2018-02-03T16:03:38.331Z,993.23
2018-02-03T16:05:31.163Z,993.22
2018-02-03T16:06:31.135Z,993.24
2018-02-03T16:08:23.977Z,993.28
2018-02-03T16:09:23.936Z,993.19
2018-02-03T16:11:16.897Z,993.25
2018-02-03T16:12:16.844Z,993.23
2018-02-03T16:14:09.697Z,993.19
2018-02-03T16:15:09.651Z,993.23
2018-02-03T16:17:02.441Z,993.27
2018-02-03T16:18:02.421Z,993.26
2018-02-03T16:19:55.253Z,993.25
2018-02-03T16:20:55.214Z,993.32
2018-02-03T16:22:48.037Z,993.18
2018-02-03T16:23:48.010Z,993.23
2018-02-03T16:25:40.847Z,993.19
2018-02-03T16:26:40.808Z,993.19
2018-02-03T16:28:34.299Z,993.22
2018-02-03T16:29:33.626Z,993.23
2018-02-03T16:31:26.448Z,993.23
2018-02-03T16:32:26.397Z,993.23
2018-02-03T16:34:19.225Z,993.19
2018-02-03T16:35:19.197Z,993.21
2018-02-03T16:37:12.034Z,993.24
2018-02-03T16:38:11.993Z,993.25
2018-02-03T16:40:04.819Z,993.24
2018-02-03T16:41:04.795Z,993.27
2018-02-03T16:42:57.636Z,993.34
2018-02-03T16:43:57.594Z,993.34
2018-02-03T16:45:50.415Z,993.33
2018-02-03T16:46:50.390Z,993.35
2018-02-03T16:48:43.231Z,993.44
2018-02-03T16:49:43.191Z,993.40
2018-02-03T16:51:36.110Z,993.38
2018-02-03T16:52:35.990Z,993.42
2018-02-03T16:54:28.823Z,993.43
2018-02-03T16:55:28.783Z,993.42
2018-02-03T16:57:22.103Z,993.43
2018-02-03T16:58:22.077Z,993.45
2018-02-03T17:00:14.921Z,993.48
2018-02-03T17:01:14.880Z,993.48
2018-02-03T17:03:07.702Z,993.48
2018-02-03T17:04:07.682Z,993.50
2018-02-03T17:06:00.513Z,993.51
2018-02-03T17:07:00.473Z,993.53
2018-02-03T17:08:53.297Z,993.51
2018-02-03T17:09:53.272Z,993.55
2018-02-03T17:11:46.113Z,993.57
2018-02-03T17:12:46.071Z,993.58
2018-02-03T17:14:38.900Z,993.61
2018-02-03T17:15:38.869Z,993.57
2018-02-03T17:17:32.233Z,993.61
2018-02-03T17:18:32.160Z,993.58
2018-02-03T17:20:24.982Z,993.60
2018-02-03T17:21:24.992Z,993.58
2018-02-03T17:23:18.288Z,993.63
2018-02-03T17:24:18.250Z,993.62
2018-02-03T17:26:11.073Z,993.61
2018-02-03T17:27:11.044Z,993.62
2018-02-03T17:29:03.883Z,993.63
2018-02-03T17:30:03.841Z,993.62
2018-02-03T17:31:57.161Z,993.66
2018-02-03T17:32:57.135Z,993.65
2018-02-03T17:34:49.982Z,993.65
2018-02-03T17:35:49.942Z,993.66
2018-02-03T17:37:42.771Z,993.68
2018-02-03T17:38:42.739Z,993.66
2018-02-03T17:40:35.576Z,993.70
2018-02-03T17:41:35.536Z,993.66
2018-02-03T17:43:28.361Z,993.69
2018-02-03T17:44:28.336Z,993.69
2018-02-03T17:46:21.179Z,993.69
2018-02-03T17:47:21.138Z,993.68
2018-02-03T17:49:13.979Z,993.71
2018-02-03T17:50:13.940Z,993.69
2018-02-03T17:52:06.786Z,993.73
2018-02-03T17:53:06.739Z,993.76
2018-02-03T17:54:59.561Z,993.69
2018-02-03T17:55:59.533Z,993.72
2018-02-03T17:57:52.370Z,993.80
2018-02-03T17:58:52.333Z,993.72
2018-02-03T18:00:45.155Z,993.73
2018-02-03T18:01:45.132Z,993.76
2018-02-03T18:03:38.468Z,993.78
2018-02-03T18:04:38.421Z,993.77
2018-02-03T18:06:31.247Z,993.78
2018-02-03T18:07:31.224Z,993.78
2018-02-03T18:09:24.060Z,993.83
2018-02-03T18:10:24.017Z,993.80
2018-02-03T18:12:17.346Z,993.76
2018-02-03T18:13:17.319Z,993.78
2018-02-03T18:15:10.160Z,993.82
2018-02-03T18:16:10.121Z,993.78
2018-02-03T18:18:03.453Z,993.87
2018-02-03T18:19:03.416Z,993.86
2018-02-03T18:20:56.251Z,993.81
2018-02-03T18:21:56.215Z,993.78
2018-02-03T18:23:49.031Z,993.82
2018-02-03T18:24:49.007Z,993.80
2018-02-03T18:26:41.853Z,993.80
2018-02-03T18:27:41.804Z,993.82
2018-02-03T18:29:35.121Z,993.85
2018-02-03T18:30:35.096Z,993.87
2018-02-03T18:32:28.439Z,993.89
2018-02-03T18:33:28.399Z,993.89
2018-02-03T18:35:21.223Z,993.89
2018-02-03T18:36:21.199Z,993.86
2018-02-03T18:38:14.040Z,993.88
2018-02-03T18:39:13.999Z,993.89
2018-02-03T18:41:06.827Z,993.87
2018-02-03T18:42:06.803Z,993.91
2018-02-03T18:43:59.638Z,993.92
2018-02-03T18:44:59.597Z,993.91
2018-02-03T18:46:52.419Z,993.88
2018-02-03T18:47:52.392Z,993.84
2018-02-03T18:49:45.230Z,993.91
2018-02-03T18:50:45.188Z,993.92
2018-02-03T18:52:39.005Z,993.93
2018-02-03T18:53:38.981Z,993.96
2018-02-03T18:55:31.819Z,993.97
2018-02-03T18:56:31.780Z,993.97
2018-02-03T18:58:25.095Z,994.00
2018-02-03T18:59:25.070Z,993.98
2018-02-03T19:01:17.906Z,993.99
2018-02-03T19:02:17.870Z,993.97
2018-02-03T19:04:11.191Z,994.01
2018-02-03T19:05:11.167Z,993.98
2018-02-03T19:07:04.005Z,994.05
2018-02-03T19:08:03.963Z,994.01
2018-02-03T19:09:56.788Z,994.05
2018-02-03T19:10:56.764Z,994.00
2018-02-03T19:12:50.094Z,994.08
2018-02-03T19:13:50.053Z,994.06
2018-02-03T19:15:42.881Z,994.10
2018-02-03T19:16:42.852Z,994.14
2018-02-03T19:18:36.195Z,994.12
2018-02-03T19:19:36.151Z,994.12
2018-02-03T19:21:28.973Z,994.09
2018-02-03T19:22:28.946Z,994.06
2018-02-03T19:24:21.782Z,994.11
2018-02-03T19:25:21.743Z,994.11
2018-02-03T19:27:14.563Z,994.16
2018-02-03T19:28:14.537Z,994.16
2018-02-03T19:30:07.375Z,994.21
2018-02-03T19:31:07.334Z,994.18